Time;durP1;ratioP1;P1;durP2;ratioP2;P2;SDS_P1;SDS_P2;PMS_P1;PMS_P2;Temp;Humidity;BMP_temperature;BMP_pressure;BME280_temperature;BME280_humidity;BME280_pressure;Samples;Min_cycle;Max_cycle;Signal;HPM_P1;HPM_P2
2023/04/10 00:02:17;;;;;;;55.63;35.15;;;7.60;99.90;;;;;;5013837;28;20188;-87
2023/04/10 00:04:43;;;;;;;58.13;37.72;;;7.60;99.90;;;;;;4997186;28;20132;-88
2023/04/10 00:07:09;;;;;;;55.38;36.17;;;7.60;99.90;;;;;;5013044;28;20053;-87
2023/04/10 00:09:35;;;;;;;54.05;34.72;;;7.50;99.90;;;;;;5013612;28;20487;-87
2023/04/10 00:12:01;;;;;;;61.90;37.83;;;7.50;99.90;;;;;;4980658;28;20165;-88
2023/04/10 00:14:26;;;;;;;58.33;37.40;;;7.40;99.90;;;;;;4996539;28;20053;-88
2023/04/10 00:16:52;;;;;;;56.65;37.55;;;7.50;99.90;;;;;;5012972;28;20140;-88
2023/04/10 00:19:17;;;;;;;58.90;37.60;;;7.40;99.90;;;;;;4996914;28;20042;-88
2023/04/10 00:21:43;;;;;;;62.90;38.60;;;7.40;99.90;;;;;;4981001;28;20556;-88
2023/04/10 00:24:09;;;;;;;56.08;37.03;;;7.30;99.90;;;;;;5013765;28;20046;-90
2023/04/10 00:26:35;;;;;;;66.55;40.15;;;7.30;99.90;;;;;;5014534;28;20046;-87
2023/04/10 00:29:01;;;;;;;60.78;38.58;;;7.20;99.90;;;;;;4982409;28;20053;-88
2023/04/10 00:31:27;;;;;;;61.53;39.92;;;7.20;99.90;;;;;;5013278;28;20049;-88
2023/04/10 00:33:53;;;;;;;61.45;38.10;;;7.20;99.90;;;;;;5013630;28;20056;-88
2023/04/10 00:36:18;;;;;;;59.97;39.63;;;7.30;99.90;;;;;;4980617;28;20088;-88
2023/04/10 00:38:44;;;;;;;60.33;38.13;;;7.20;99.90;;;;;;4997738;28;20057;-87
2023/04/10 00:41:10;;;;;;;65.82;40.92;;;7.10;99.90;;;;;;4982503;28;20045;-89
2023/04/10 00:43:35;;;;;;;63.47;39.35;;;7.20;99.90;;;;;;5026827;28;20033;-91
2023/04/10 00:46:01;;;;;;;63.97;40.13;;;7.10;99.90;;;;;;5018507;28;20046;-88
2023/04/10 00:48:27;;;;;;;59.45;40.03;;;7.10;99.90;;;;;;4997087;28;20046;-88
2023/04/10 00:50:53;;;;;;;62.65;41.45;;;7.10;99.90;;;;;;4997143;28;20494;-88
2023/04/10 00:53:18;;;;;;;65.88;40.97;;;7.10;99.90;;;;;;4996859;28;20049;-89
2023/04/10 00:55:45;;;;;;;65.28;41.10;;;7.00;99.90;;;;;;5003499;28;20057;-89
2023/04/10 00:58:13;;;;;;;65.30;42.33;;;7.00;99.90;;;;;;4991904;28;20148;-88
2023/04/10 01:00:39;;;;;;;64.07;41.08;;;7.00;99.90;;;;;;5024322;28;20062;-88
2023/04/10 01:03:09;;;;;;;65.43;41.78;;;7.10;99.90;;;;;;5007955;28;20046;-86
2023/04/10 01:05:41;;;;;;;68.22;41.58;;;7.00;99.90;;;;;;4984541;28;20058;-87
2023/04/10 01:08:24;;;;;;;66.15;41.97;;;7.00;99.90;;;;;;4980809;28;20057;-89
2023/04/10 01:11:30;;;;;;;68.22;44.63;;;6.90;99.90;;;;;;5012969;28;20460;-87
2023/04/10 01:14:06;;;;;;;67.57;44.00;;;6.90;99.90;;;;;;4975312;28;20050;-87
2023/04/10 01:17:01;;;;;;;64.95;43.53;;;6.80;99.90;;;;;;5011648;28;20041;-87
2023/04/10 01:19:31;;;;;;;64.72;42.33;;;6.80;99.90;;;;;;4968060;28;20120;-87
2023/04/10 01:21:57;;;;;;;65.32;43.47;;;6.90;99.90;;;;;;5012529;28;20053;-88
2023/04/10 01:24:41;;;;;;;67.10;43.05;;;7.00;99.90;;;;;;4995700;28;20049;-89
2023/04/10 01:27:33;;;;;;;64.47;43.35;;;6.80;99.90;;;;;;4996446;28;20049;-89
2023/04/10 01:29:59;;;;;;;71.50;44.13;;;6.80;99.90;;;;;;5012400;28;20057;-87
2023/04/10 01:32:25;;;;;;;68.85;43.22;;;6.80;99.90;;;;;;4996014;28;20042;-88
2023/04/10 01:34:51;;;;;;;68.80;43.70;;;6.70;99.90;;;;;;4994039;28;20053;-88
2023/04/10 01:37:21;;;;;;;68.57;45.13;;;6.70;99.90;;;;;;5010427;28;20050;-88
2023/04/10 01:39:53;;;;;;;69.57;43.63;;;6.70;99.90;;;;;;4978106;28;20383;-89
2023/04/10 01:42:19;;;;;;;72.28;45.67;;;6.70;99.90;;;;;;4994469;28;20073;-89
2023/04/10 01:44:45;;;;;;;75.22;45.22;;;6.60;99.90;;;;;;4979266;28;20077;-89
2023/04/10 01:47:12;;;;;;;76.50;45.30;;;6.60;99.90;;;;;;4995122;28;20050;-88
2023/04/10 01:49:43;;;;;;;71.57;45.28;;;6.60;99.90;;;;;;4995553;28;20061;-90
2023/04/10 01:52:09;;;;;;;77.35;46.42;;;6.60;99.90;;;;;;4996189;28;20184;-87
2023/04/10 01:54:35;;;;;;;73.20;46.28;;;6.50;99.90;;;;;;5011332;28;20202;-88
2023/04/10 01:57:02;;;;;;;75.38;46.67;;;6.50;99.90;;;;;;4995069;28;20143;-88
2023/04/10 01:59:28;;;;;;;75.57;46.28;;;6.50;99.90;;;;;;4995372;28;20060;-88
2023/04/10 02:01:58;;;;;;;72.65;44.97;;;6.50;99.90;;;;;;5011703;28;20140;-87
2023/04/10 02:04:25;;;;;;;72.97;46.75;;;6.50;99.90;;;;;;4979166;28;20128;-87
2023/04/10 02:07:01;;;;;;;74.85;46.95;;;6.50;99.90;;;;;;5011580;28;20047;-87
2023/04/10 02:09:39;;;;;;;72.35;45.78;;;6.40;99.90;;;;;;4980538;28;20053;-89
2023/04/10 02:12:05;;;;;;;69.60;44.90;;;6.40;99.90;;;;;;5012057;28;20144;-88
2023/04/10 02:14:32;;;;;;;69.20;44.15;;;6.40;99.90;;;;;;5012111;28;20054;-87
2023/04/10 02:16:58;;;;;;;69.38;46.13;;;6.40;99.90;;;;;;4994130;28;20053;-87
2023/04/10 02:19:24;;;;;;;71.32;45.70;;;6.40;99.90;;;;;;4995583;28;20049;-88
2023/04/10 02:21:53;;;;;;;70.20;45.13;;;6.40;99.90;;;;;;4995992;28;20441;-89
2023/04/10 02:24:19;;;;;;;68.53;44.90;;;6.40;99.90;;;;;;4980007;28;20049;-87
2023/04/10 02:26:49;;;;;;;70.28;44.75;;;6.40;99.90;;;;;;4995027;28;20105;-89
2023/04/10 02:29:15;;;;;;;76.47;46.75;;;6.40;99.90;;;;;;4978933;28;20504;-88
2023/04/10 02:31:41;;;;;;;64.72;42.90;;;6.40;99.90;;;;;;5012300;28;20121;-88
2023/04/10 02:34:07;;;;;;;71.07;44.33;;;6.40;99.90;;;;;;4995047;28;20049;-87
2023/04/10 02:36:34;;;;;;;65.93;43.33;;;6.40;99.90;;;;;;4995057;28;20042;-88
2023/04/10 02:39:00;;;;;;;68.88;43.10;;;6.40;99.90;;;;;;5011109;28;20077;-89
2023/04/10 02:41:25;;;;;;;67.63;42.97;;;6.40;99.90;;;;;;4978516;28;20061;-89
2023/04/10 02:43:51;;;;;;;67.15;43.15;;;6.50;99.90;;;;;;5013392;28;20053;-88
2023/04/10 02:46:17;;;;;;;76.30;44.60;;;6.50;99.90;;;;;;4998049;28;20057;-89
2023/04/10 02:48:42;;;;;;;74.20;43.95;;;6.50;99.90;;;;;;4997771;28;20088;-88
2023/04/10 02:51:08;;;;;;;70.95;43.70;;;6.50;99.90;;;;;;4998238;28;20379;-88
2023/04/10 02:53:34;;;;;;;69.20;45.13;;;6.50;99.90;;;;;;5014290;28;20481;-88
2023/04/10 02:55:59;;;;;;;66.80;43.03;;;7.30;99.90;;;;;;5014330;28;20046;-89
2023/04/10 02:58:26;;;;;;;62.75;41.50;;;6.50;99.90;;;;;;5014088;28;20520;-89
2023/04/10 03:00:52;;;;;;;70.25;44.33;;;6.40;99.90;;;;;;5013983;28;20136;-88
2023/04/10 03:03:18;;;;;;;70.13;44.85;;;6.40;99.90;;;;;;5013873;28;20165;-86
2023/04/10 03:05:45;;;;;;;67.97;42.50;;;6.40;99.90;;;;;;4981780;28;20494;-89
2023/04/10 03:08:12;;;;;;;65.68;43.03;;;6.40;99.90;;;;;;4998001;28;20390;-87
2023/04/10 03:10:38;;;;;;;68.55;42.03;;;6.30;99.90;;;;;;4998145;28;20049;-89
2023/04/10 03:13:03;;;;;;;68.88;43.40;;;6.30;99.90;;;;;;5014563;28;20042;-90
2023/04/10 03:15:29;;;;;;;65.38;42.05;;;6.40;99.90;;;;;;4998032;28;20042;-89
2023/04/10 03:17:55;;;;;;;69.45;43.63;;;6.30;99.90;;;;;;4997717;28;20056;-89
2023/04/10 03:20:21;;;;;;;63.20;40.95;;;6.40;99.90;;;;;;5030205;28;20049;-89
2023/04/10 03:22:46;;;;;;;65.82;42.47;;;6.40;99.90;;;;;;4997627;28;20045;-89
2023/04/10 03:25:12;;;;;;;69.50;43.78;;;7.00;99.90;;;;;;5014263;28;20367;-88
2023/04/10 03:27:38;;;;;;;63.53;42.08;;;6.30;99.90;;;;;;4997658;28;20123;-88
2023/04/10 03:30:04;;;;;;;68.65;42.83;;;6.40;99.90;;;;;;4997783;28;20054;-88
2023/04/10 03:32:30;;;;;;;64.53;42.00;;;6.40;99.90;;;;;;4981068;28;20843;-89
2023/04/10 03:34:56;;;;;;;66.03;42.28;;;6.40;99.90;;;;;;5013886;28;20137;-89
2023/04/10 03:37:22;;;;;;;69.70;43.33;;;6.40;99.90;;;;;;4997668;28;20088;-88
2023/04/10 03:39:47;;;;;;;62.75;42.70;;;6.40;99.90;;;;;;5013610;28;20077;-89
2023/04/10 03:42:13;;;;;;;68.47;43.17;;;6.40;99.90;;;;;;5013948;28;20049;-88
2023/04/10 03:44:39;;;;;;;68.25;42.42;;;6.40;99.90;;;;;;5013108;28;20046;-88
2023/04/10 03:47:04;;;;;;;69.18;43.95;;;6.40;99.90;;;;;;4996959;28;20080;-89
2023/04/10 03:49:30;;;;;;;64.45;40.33;;;6.40;99.90;;;;;;5013531;28;20128;-88
2023/04/10 03:51:55;;;;;;;72.35;44.08;;;6.50;99.90;;;;;;4996972;28;20053;-87
2023/04/10 03:54:21;;;;;;;66.72;41.95;;;6.60;99.90;;;;;;4996868;28;20129;-88
2023/04/10 03:56:47;;;;;;;65.28;42.65;;;6.50;99.90;;;;;;4996534;28;20042;-87
2023/04/10 03:59:12;;;;;;;65.40;43.38;;;6.50;99.90;;;;;;4998774;28;20046;-88
2023/04/10 04:01:38;;;;;;;68.22;43.92;;;6.50;99.90;;;;;;5001196;28;20049;-89
2023/04/10 04:04:04;;;;;;;67.15;42.92;;;6.50;99.90;;;;;;4984449;28;20484;-88
2023/04/10 04:06:30;;;;;;;68.97;44.65;;;6.50;99.90;;;;;;5016308;28;20391;-89
2023/04/10 04:08:56;;;;;;;68.38;44.35;;;6.40;99.90;;;;;;5000320;28;20103;-88
2023/04/10 04:11:22;;;;;;;69.25;44.80;;;6.40;99.90;;;;;;5000127;28;20049;-87
2023/04/10 04:13:47;;;;;;;66.25;44.63;;;6.40;99.90;;;;;;5000164;28;20081;-87
2023/04/10 04:16:13;;;;;;;69.25;43.47;;;6.40;99.90;;;;;;5016035;28;20060;-88
2023/04/10 04:18:39;;;;;;;69.78;44.17;;;6.40;99.90;;;;;;5016279;28;20041;-89
2023/04/10 04:21:06;;;;;;;64.70;41.67;;;6.40;99.90;;;;;;5016869;28;20056;-87
2023/04/10 04:23:32;;;;;;;74.53;46.00;;;6.40;99.90;;;;;;4983857;28;20053;-87
2023/04/10 04:25:58;;;;;;;64.20;42.97;;;6.40;99.90;;;;;;5016108;28;20478;-88
2023/04/10 04:28:24;;;;;;;70.55;44.90;;;6.40;99.90;;;;;;5015786;28;20049;-88
2023/04/10 04:30:50;;;;;;;71.00;44.80;;;6.40;99.90;;;;;;5016013;28;20545;-88
2023/04/10 04:33:15;;;;;;;69.65;45.28;;;6.40;99.90;;;;;;5016085;28;20049;-89
2023/04/10 04:35:41;;;;;;;69.28;43.83;;;6.40;99.90;;;;;;4999350;28;20103;-88
2023/04/10 04:38:07;;;;;;;69.80;44.72;;;6.40;99.90;;;;;;5015967;28;20041;-88
2023/04/10 04:40:32;;;;;;;70.45;44.45;;;6.40;99.90;;;;;;4999120;28;20200;-87
2023/04/10 04:42:58;;;;;;;70.90;44.47;;;6.40;99.90;;;;;;5015837;28;20466;-87
2023/04/10 04:45:24;;;;;;;69.15;44.63;;;6.50;99.90;;;;;;4999612;28;20512;-88
2023/04/10 04:47:49;;;;;;;71.00;44.72;;;6.40;99.90;;;;;;5015188;28;20711;-88
2023/04/10 04:50:15;;;;;;;69.88;44.05;;;6.40;99.90;;;;;;5015256;28;20393;-89
2023/04/10 04:52:42;;;;;;;72.00;45.80;;;6.40;99.90;;;;;;5015877;28;20731;-87
2023/04/10 04:55:08;;;;;;;72.22;44.83;;;6.50;99.90;;;;;;4998808;28;20394;-88
2023/04/10 04:57:34;;;;;;;69.25;44.55;;;6.50;99.90;;;;;;5015165;28;20098;-89
2023/04/10 05:00:00;;;;;;;72.22;45.55;;;6.50;99.90;;;;;;4982676;28;20057;-88
2023/04/10 05:02:25;;;;;;;69.97;47.00;;;6.50;99.90;;;;;;4983171;28;20094;-88
2023/04/10 05:04:51;;;;;;;71.63;46.97;;;6.50;99.90;;;;;;4999195;28;20425;-89
2023/04/10 05:07:16;;;;;;;72.90;46.50;;;6.50;99.90;;;;;;4966476;28;20072;-86
2023/04/10 05:09:42;;;;;;;73.05;46.63;;;6.50;99.90;;;;;;4998798;28;20167;-87
2023/04/10 05:12:08;;;;;;;73.25;46.67;;;6.50;99.90;;;;;;5015070;28;20452;-87
2023/04/10 05:14:33;;;;;;;71.47;46.70;;;6.50;99.90;;;;;;5015258;28;20550;-88
2023/04/10 05:16:59;;;;;;;72.97;47.60;;;6.60;99.90;;;;;;4981934;28;20535;-87
2023/04/10 05:19:24;;;;;;;71.05;45.55;;;6.60;99.90;;;;;;4999175;28;20049;-88
2023/04/10 05:21:50;;;;;;;71.72;47.33;;;6.70;99.90;;;;;;4998467;28;20045;-87
2023/04/10 05:24:16;;;;;;;76.50;47.35;;;7.30;99.90;;;;;;4998896;28;20397;-88
2023/04/10 05:26:41;;;;;;;71.53;46.20;;;6.80;99.90;;;;;;5015286;28;20045;-89
2023/04/10 05:29:07;;;;;;;73.22;46.75;;;6.90;99.90;;;;;;5014906;28;20133;-88
2023/04/10 05:31:33;;;;;;;74.35;47.42;;;6.90;99.90;;;;;;4998704;28;20060;-86
2023/04/10 05:33:58;;;;;;;70.60;46.13;;;7.10;99.90;;;;;;5000087;28;20081;-87
2023/04/10 05:36:24;;;;;;;74.03;47.63;;;7.10;99.90;;;;;;5015494;28;20046;-88
2023/04/10 05:38:50;;;;;;;76.95;48.50;;;7.20;99.90;;;;;;4998689;28;20045;-89
2023/04/10 05:41:15;;;;;;;71.15;47.40;;;7.20;99.90;;;;;;4998936;28;20081;-89
2023/04/10 05:43:41;;;;;;;70.13;46.67;;;7.40;99.90;;;;;;4982305;28;20061;-88
2023/04/10 05:46:07;;;;;;;71.10;46.20;;;7.50;99.90;;;;;;4998419;28;20049;-88
2023/04/10 05:48:32;;;;;;;73.90;46.17;;;7.60;99.90;;;;;;4997996;28;20050;-88
2023/04/10 05:50:58;;;;;;;72.45;46.20;;;7.90;99.90;;;;;;4998904;28;20041;-88
2023/04/10 05:53:30;;;;;;;73.20;46.15;;;8.20;99.90;;;;;;4998578;28;20051;-87
2023/04/10 05:55:56;;;;;;;68.78;44.38;;;8.50;99.90;;;;;;4999081;28;20124;-87
2023/04/10 05:58:22;;;;;;;70.30;45.58;;;8.90;99.90;;;;;;4998301;28;20430;-88
2023/04/10 06:00:47;;;;;;;70.85;44.63;;;9.10;99.90;;;;;;5014520;28;20064;-88
2023/04/10 06:03:13;;;;;;;67.18;44.92;;;9.30;99.90;;;;;;4998517;28;20489;-88
2023/04/10 06:05:40;;;;;;;70.38;46.10;;;9.40;99.80;;;;;;4998360;28;20046;-88
2023/04/10 06:08:06;;;;;;;70.28;45.35;;;9.50;99.80;;;;;;4983339;28;20506;-87
2023/04/10 06:10:32;;;;;;;68.38;45.42;;;9.70;98.90;;;;;;4998621;28;20839;-88
2023/04/10 06:12:57;;;;;;;67.57;46.47;;;9.80;98.00;;;;;;5015814;28;20049;-88
2023/04/10 06:15:23;;;;;;;65.32;45.40;;;10.00;98.00;;;;;;4999303;28;20115;-86
2023/04/10 06:17:48;;;;;;;69.13;45.58;;;10.20;98.30;;;;;;4985132;28;20056;-88
2023/04/10 06:20:14;;;;;;;68.40;43.95;;;10.40;97.60;;;;;;5002340;28;20128;-88
2023/04/10 06:22:40;;;;;;;67.78;44.70;;;10.90;96.60;;;;;;5001578;28;20041;-90
2023/04/10 06:25:06;;;;;;;64.80;44.80;;;11.40;96.80;;;;;;5018292;28;20076;-88
2023/04/10 06:27:33;;;;;;;66.97;45.63;;;11.40;95.90;;;;;;4985022;28;20064;-90
2023/04/10 06:29:59;;;;;;;64.63;44.63;;;11.30;95.50;;;;;;5016448;28;20033;-88
2023/04/10 06:32:24;;;;;;;68.07;45.85;;;11.20;95.00;;;;;;4983819;28;20111;-89
2023/04/10 06:34:50;;;;;;;66.78;44.33;;;11.20;95.90;;;;;;5019728;28;20108;-87
2023/04/10 06:37:16;;;;;;;61.92;44.03;;;11.20;95.10;;;;;;5018287;28;20041;-87
2023/04/10 06:39:41;;;;;;;60.65;43.95;;;11.20;95.60;;;;;;5000143;28;20122;-88
2023/04/10 06:42:07;;;;;;;63.33;42.72;;;11.30;95.40;;;;;;5015679;28;20057;-90
2023/04/10 06:44:33;;;;;;;64.05;43.80;;;11.50;95.60;;;;;;4999723;28;20037;-90
2023/04/10 06:46:58;;;;;;;63.80;43.33;;;11.60;94.60;;;;;;4982231;28;20401;-88
2023/04/10 06:49:24;;;;;;;63.10;43.08;;;11.50;95.00;;;;;;4981768;28;20049;-90
2023/04/10 06:51:50;;;;;;;61.80;42.50;;;11.70;94.00;;;;;;4997370;28;20045;-90
2023/04/10 06:54:15;;;;;;;63.30;41.55;;;11.90;94.60;;;;;;4999139;28;20046;-90
2023/04/10 06:56:41;;;;;;;61.20;42.15;;;12.10;94.60;;;;;;5014421;28;20052;-89
2023/04/10 06:59:07;;;;;;;57.13;40.55;;;12.20;94.00;;;;;;5014710;28;20056;-89
2023/04/10 07:01:32;;;;;;;60.58;41.42;;;12.60;93.20;;;;;;5014497;28;20057;-90
2023/04/10 07:03:58;;;;;;;56.22;40.50;;;12.50;93.90;;;;;;4975171;28;20056;-88
2023/04/10 07:06:25;;;;;;;59.50;40.72;;;12.50;92.70;;;;;;4989380;28;20116;-88
2023/04/10 07:08:50;;;;;;;59.55;41.03;;;12.50;93.90;;;;;;5006893;28;20061;-88
2023/04/10 07:11:16;;;;;;;60.58;41.15;;;12.40;92.80;;;;;;4971251;28;20038;-89
2023/04/10 07:13:41;;;;;;;57.55;40.00;;;12.30;93.60;;;;;;4987922;28;20088;-90
2023/04/10 07:16:08;;;;;;;59.13;40.00;;;12.10;93.10;;;;;;5005746;28;20041;-90
2023/04/10 07:18:34;;;;;;;57.35;38.15;;;11.90;93.40;;;;;;5005331;28;20572;-89
2023/04/10 07:21:01;;;;;;;51.90;37.30;;;11.80;93.80;;;;;;5007757;28;20374;-90
2023/04/10 07:23:26;;;;;;;54.00;35.67;;;11.80;92.80;;;;;;4974376;28;20061;-91
2023/04/10 07:25:52;;;;;;;60.78;39.83;;;11.80;93.20;;;;;;4989520;28;20042;-88
2023/04/10 07:28:18;;;;;;;59.15;40.75;;;12.10;93.60;;;;;;4962102;28;20482;-91
2023/04/10 07:30:43;;;;;;;52.25;36.50;;;12.30;93.60;;;;;;4973645;28;20046;-91
2023/04/10 07:33:09;;;;;;;51.53;35.55;;;12.20;93.50;;;;;;4969603;28;20045;-89
2023/04/10 07:35:35;;;;;;;51.83;34.65;;;12.40;93.00;;;;;;4987935;28;20049;-91
2023/04/10 07:38:01;;;;;;;45.83;32.28;;;12.70;92.60;;;;;;4955024;28;20087;-91
2023/04/10 07:40:26;;;;;;;43.70;31.83;;;13.00;91.50;;;;;;4984900;28;20612;-90
2023/04/10 07:42:52;;;;;;;45.95;32.55;;;13.00;91.50;;;;;;4986963;28;20053;-90
2023/04/10 07:45:18;;;;;;;43.75;31.40;;;13.30;91.50;;;;;;4987923;28;20115;-91
2023/04/10 07:47:43;;;;;;;44.17;32.00;;;13.90;90.70;;;;;;4986816;28;20107;-92
2023/04/10 07:50:10;;;;;;;44.90;31.40;;;14.40;90.20;;;;;;5005915;28;20034;-92
2023/04/10 07:52:35;;;;;;;41.85;29.77;;;15.00;89.30;;;;;;4973913;28;20090;-91
2023/04/10 07:55:04;;;;;;;43.90;30.42;;;15.40;86.30;;;;;;4978718;28;20049;-91
2023/04/10 07:57:31;;;;;;;42.78;30.52;;;15.60;85.40;;;;;;4970720;28;20044;-92
2023/04/10 07:59:56;;;;;;;41.95;30.08;;;15.70;85.10;;;;;;4972931;28;20057;-91
2023/04/10 08:02:22;;;;;;;39.80;28.75;;;15.50;85.20;;;;;;4952802;28;20053;-88
2023/04/10 08:04:48;;;;;;;36.92;27.42;;;16.00;86.00;;;;;;5009256;28;20040;-89
2023/04/10 08:07:13;;;;;;;38.85;28.02;;;15.90;83.20;;;;;;4987113;28;20037;-90
2023/04/10 08:09:39;;;;;;;38.70;26.98;;;16.10;83.30;;;;;;4986069;28;20045;-91
2023/04/10 08:12:05;;;;;;;34.42;26.08;;;16.30;83.10;;;;;;4997457;28;20436;-91
2023/04/10 08:14:30;;;;;;;33.75;25.15;;;16.40;82.00;;;;;;4998361;28;20092;-90
2023/04/10 08:16:56;;;;;;;35.58;25.55;;;16.50;80.90;;;;;;4980739;28;20037;-89
2023/04/10 08:19:22;;;;;;;36.78;25.10;;;16.60;80.90;;;;;;4981537;28;20049;-89
2023/04/10 08:21:48;;;;;;;32.72;24.95;;;16.50;81.70;;;;;;4966771;28;20485;-91
2023/04/10 08:24:13;;;;;;;34.72;25.17;;;16.50;81.20;;;;;;5009012;28;20049;-91
2023/04/10 08:26:39;;;;;;;31.33;23.58;;;16.20;82.60;;;;;;5007611;28;20049;-90
2023/04/10 08:29:05;;;;;;;31.63;23.63;;;16.70;82.60;;;;;;4997977;28;20073;-91
2023/04/10 08:31:30;;;;;;;33.22;23.90;;;17.00;81.30;;;;;;4968704;28;20486;-89
2023/04/10 08:33:56;;;;;;;32.28;23.83;;;17.10;80.20;;;;;;5013178;28;20049;-88
2023/04/10 08:36:22;;;;;;;29.05;22.48;;;17.20;79.70;;;;;;5010660;28;20053;-90
2023/04/10 08:38:48;;;;;;;28.65;22.25;;;16.90;80.40;;;;;;4987866;28;20819;-88
2023/04/10 08:41:14;;;;;;;30.45;22.85;;;16.60;79.70;;;;;;4999026;28;20132;-88
2023/04/10 08:43:42;;;;;;;31.45;23.67;;;16.60;80.10;;;;;;4971460;28;20054;-87
2023/04/10 08:46:09;;;;;;;28.50;21.92;;;16.60;81.10;;;;;;4970661;28;20042;-89
2023/04/10 08:48:38;;;;;;;32.08;22.02;;;16.40;81.30;;;;;;5007801;28;20096;-89
2023/04/10 08:51:04;;;;;;;27.67;21.63;;;16.40;81.20;;;;;;4971163;28;20413;-89
2023/04/10 08:53:30;;;;;;;28.23;21.48;;;16.30;81.40;;;;;;4984821;28;20054;-91
2023/04/10 08:55:56;;;;;;;31.42;22.92;;;16.60;81.70;;;;;;4977578;28;20052;-87
2023/04/10 08:58:23;;;;;;;27.13;21.33;;;16.70;81.50;;;;;;4994572;28;20047;-89
2023/04/10 09:00:49;;;;;;;33.60;23.40;;;16.90;80.80;;;;;;4977759;28;20053;-89
2023/04/10 09:03:14;;;;;;;27.98;22.33;;;16.40;81.70;;;;;;4962826;28;20058;-88
2023/04/10 09:05:40;;;;;;;28.67;22.23;;;16.40;82.50;;;;;;4976933;28;20046;-89
2023/04/10 09:08:10;;;;;;;28.70;21.73;;;16.20;82.50;;;;;;4976667;28;20475;-90
2023/04/10 09:10:36;;;;;;;30.05;21.90;;;16.40;83.50;;;;;;4965440;28;20056;-88
2023/04/10 09:13:02;;;;;;;29.50;22.23;;;16.60;83.50;;;;;;4980591;28;20046;-91
2023/04/10 09:15:27;;;;;;;29.80;22.77;;;16.70;83.00;;;;;;4968577;28;20172;-89
2023/04/10 09:18:01;;;;;;;29.48;22.17;;;17.40;81.00;;;;;;4969407;28;20070;-89
2023/04/10 09:20:29;;;;;;;28.23;22.48;;;17.80;79.70;;;;;;4985217;28;20133;-89
2023/04/10 09:22:54;;;;;;;32.75;22.90;;;17.60;80.00;;;;;;4969467;28;20054;-90
2023/04/10 09:25:34;;;;;;;30.08;22.80;;;17.80;79.50;;;;;;4970738;28;20033;-92
2023/04/10 09:28:07;;;;;;;28.65;21.55;;;17.50;79.10;;;;;;4989501;28;20125;-89
2023/04/10 09:30:40;;;;;;;27.37;20.73;;;17.60;78.80;;;;;;4969589;28;20113;-92
2023/04/10 09:33:21;;;;;;;28.50;21.92;;;17.90;79.20;;;;;;4988423;28;20069;-92
2023/04/10 09:35:47;;;;;;;28.02;22.15;;;18.30;79.30;;;;;;4993760;28;20048;-90
2023/04/10 09:38:15;;;;;;;28.40;21.77;;;18.50;78.40;;;;;;5018290;28;20042;-91
2023/04/10 09:40:41;;;;;;;24.58;19.77;;;18.30;78.60;;;;;;4971984;28;20049;-92
2023/04/10 09:43:24;;;;;;;26.25;20.35;;;17.80;79.90;;;;;;5001793;28;20042;-89
2023/04/10 09:45:55;;;;;;;29.58;20.63;;;17.40;79.30;;;;;;4987577;28;20076;-89
2023/04/10 09:48:21;;;;;;;27.63;21.15;;;17.50;79.40;;;;;;4971451;28;20461;-90
2023/04/10 09:50:47;;;;;;;23.75;19.92;;;17.80;80.20;;;;;;4969590;28;20049;-91
2023/04/10 09:53:20;;;;;;;24.90;19.48;;;17.90;80.20;;;;;;5005482;28;20121;-89
2023/04/10 09:55:49;;;;;;;25.40;19.25;;;18.00;79.70;;;;;;5005324;28;20045;-91
2023/04/10 09:58:15;;;;;;;25.08;18.88;;;17.80;79.60;;;;;;4989343;28;20153;-89
2023/04/10 10:00:43;;;;;;;24.10;19.20;;;17.40;80.50;;;;;;4998257;28;20477;-88
2023/04/10 10:03:13;;;;;;;25.75;18.55;;;17.50;79.70;;;;;;5000445;28;20052;-94
2023/04/10 10:05:42;;;;;;;24.13;18.13;;;17.20;80.70;;;;;;5001653;28;20057;-91
2023/04/10 10:08:12;;;;;;;23.05;18.40;;;17.60;79.70;;;;;;5006137;28;20053;-92
2023/04/10 10:10:40;;;;;;;22.42;17.65;;;17.30;80.60;;;;;;5010217;28;20045;-91
2023/04/10 10:13:06;;;;;;;21.98;16.73;;;17.60;80.00;;;;;;4990103;28;20203;-89
2023/04/10 10:15:43;;;;;;;23.50;16.98;;;18.00;78.90;;;;;;4986302;28;20105;-89
2023/04/10 10:18:37;;;;;;;23.20;17.50;;;18.00;79.10;;;;;;5002213;28;20072;-90
2023/04/10 10:21:03;;;;;;;20.77;15.52;;;17.90;80.50;;;;;;5016093;28;20060;-89
2023/04/10 10:23:29;;;;;;;17.23;14.07;;;17.60;79.50;;;;;;4993638;28;20037;-95
2023/04/10 10:25:54;;;;;;;16.48;13.77;;;17.80;79.70;;;;;;4972092;28;20079;-89
2023/04/10 10:28:20;;;;;;;19.05;14.15;;;17.80;79.20;;;;;;4958222;28;20045;-91
2023/04/10 10:30:49;;;;;;;16.65;13.27;;;17.90;79.30;;;;;;4956636;28;20049;-91
2023/04/10 10:33:14;;;;;;;14.75;12.30;;;17.80;79.10;;;;;;4970287;28;20152;-90
2023/04/10 10:35:40;;;;;;;13.85;11.70;;;18.00;79.40;;;;;;4989832;28;20775;-89
2023/04/10 10:38:06;;;;;;;15.85;11.68;;;17.90;78.70;;;;;;4995501;28;20136;-87
2023/04/10 10:40:51;;;;;;;11.40;9.88;;;17.90;78.20;;;;;;4992915;28;20128;-93
2023/04/10 10:43:46;;;;;;;12.02;9.57;;;18.40;78.30;;;;;;4978914;28;20140;-91
2023/04/10 10:46:20;;;;;;;12.32;9.88;;;17.70;78.20;;;;;;4990689;28;20048;-91
2023/04/10 10:48:58;;;;;;;10.27;9.18;;;17.80;76.80;;;;;;5002896;28;20077;-90
2023/04/10 10:51:43;;;;;;;11.77;9.30;;;17.70;78.20;;;;;;5006905;28;20045;-89
2023/04/10 10:54:27;;;;;;;10.93;9.68;;;17.70;78.70;;;;;;4991640;28;20045;-88
2023/04/10 10:56:54;;;;;;;12.50;9.68;;;17.70;79.30;;;;;;5013403;28;20056;-88
2023/04/10 10:59:59;;;;;;;9.98;8.50;;;17.50;78.50;;;;;;4980025;28;20147;-89
2023/04/10 11:02:24;;;;;;;;;;;17.60;77.60;;;;;;5016604;28;20057;-91
2023/04/10 11:04:50;;;;;;;9.85;8.27;;;17.10;78.20;;;;;;5005007;28;19921;-88
2023/04/10 11:07:16;;;;;;;9.82;8.18;;;17.10;78.90;;;;;;4984076;28;20050;-90
2023/04/10 11:09:51;;;;;;;11.20;7.95;;;16.80;79.90;;;;;;4994840;28;20050;-90
2023/04/10 11:12:24;;;;;;;10.23;8.23;;;16.90;80.20;;;;;;4962923;28;20101;-88
2023/04/10 11:15:00;;;;;;;9.40;7.97;;;16.60;80.60;;;;;;4980349;28;20057;-91
2023/04/10 11:17:45;;;;;;;9.98;8.00;;;16.90;80.80;;;;;;4962875;28;20049;-91
2023/04/10 11:20:10;;;;;;;9.55;8.25;;;17.20;81.30;;;;;;4996013;28;20045;-91
2023/04/10 11:23:05;;;;;;;8.73;7.72;;;16.90;81.10;;;;;;4996012;28;20133;-88
2023/04/10 11:25:48;;;;;;;10.80;7.63;;;17.00;79.40;;;;;;4980267;28;20053;-89
2023/04/10 11:28:40;;;;;;;8.25;7.30;;;17.00;81.00;;;;;;4964880;28;20045;-92
2023/04/10 11:31:21;;;;;;;8.73;7.38;;;16.90;80.70;;;;;;4975689;28;20066;-89
2023/04/10 11:34:03;;;;;;;8.48;7.20;;;16.90;80.30;;;;;;4962978;28;20053;-91
2023/04/10 11:36:29;;;;;;;9.20;7.03;;;17.00;80.80;;;;;;4980289;28;20052;-92
2023/04/10 11:39:04;;;;;;;8.68;7.35;;;16.80;81.50;;;;;;4981215;28;20044;-92
2023/04/10 11:41:34;;;;;;;8.38;7.00;;;17.00;81.70;;;;;;4984634;28;20737;-89
2023/04/10 11:44:01;;;;;;;7.18;6.47;;;17.10;80.60;;;;;;5016739;28;20057;-89
2023/04/10 11:46:27;;;;;;;9.70;7.15;;;17.10;80.80;;;;;;4985156;28;20046;-89
2023/04/10 11:49:00;;;;;;;8.05;6.45;;;17.20;80.50;;;;;;4985313;28;20041;-89
2023/04/10 11:51:27;;;;;;;9.43;6.70;;;17.20;81.20;;;;;;4985278;28;20100;-92
2023/04/10 11:54:09;;;;;;;7.95;6.13;;;17.00;81.60;;;;;;4965527;28;20289;-89
2023/04/10 11:56:36;;;;;;;8.68;6.15;;;17.20;80.10;;;;;;4967936;28;20070;-90
2023/04/10 11:59:06;;;;;;;8.23;6.55;;;17.20;82.00;;;;;;4994920;28;20137;-89
2023/04/10 12:01:34;;;;;;;6.70;6.00;;;17.20;81.00;;;;;;4962647;28;20144;-88
2023/04/10 12:04:00;;;;;;;7.10;5.93;;;17.20;81.20;;;;;;5014560;28;20112;-89
2023/04/10 12:06:26;;;;;;;6.03;5.43;;;17.30;80.30;;;;;;4981964;28;20058;-90
2023/04/10 12:08:52;;;;;;;5.88;4.95;;;17.30;80.50;;;;;;4997911;28;20131;-89
2023/04/10 12:11:21;;;;;;;6.00;4.68;;;17.50;80.30;;;;;;4997068;28;20125;-89
2023/04/10 12:13:50;;;;;;;7.45;5.25;;;17.50;79.50;;;;;;4997777;28;20056;-88
2023/04/10 12:16:16;;;;;;;6.15;4.82;;;17.60;79.90;;;;;;4996726;28;20056;-91
2023/04/10 12:18:41;;;;;;;5.93;4.50;;;17.80;79.10;;;;;;4980616;28;20049;-91
2023/04/10 12:21:07;;;;;;;5.88;4.38;;;18.00;79.80;;;;;;4965298;28;20504;-90
2023/04/10 12:23:33;;;;;;;4.78;4.22;;;18.10;79.40;;;;;;4981118;28;20053;-91
2023/04/10 12:26:25;;;;;;;5.20;4.53;;;18.10;79.60;;;;;;4981773;28;20501;-89
2023/04/10 12:28:55;;;;;;;4.97;4.47;;;17.90;79.10;;;;;;4993262;28;20065;-91
2023/04/10 12:31:35;;;;;;;5.22;4.65;;;18.10;79.20;;;;;;4981769;28;20045;-91
2023/04/10 12:34:01;;;;;;;5.13;4.53;;;18.10;79.00;;;;;;4981191;28;20123;-90
2023/04/10 12:36:31;;;;;;;5.93;4.45;;;18.00;78.50;;;;;;5011086;28;20136;-88
2023/04/10 12:38:57;;;;;;;6.75;4.70;;;18.10;79.60;;;;;;4996544;28;20060;-88
2023/04/10 12:41:30;;;;;;;6.47;5.10;;;18.40;79.10;;;;;;4993060;28;20045;-86